Time;durP1;ratioP1;P1;durP2;ratioP2;P2;SDS_P1;SDS_P2;PMS_P1;PMS_P2;Temp;Humidity;BMP_temperature;BMP_pressure;BME280_temperature;BME280_humidity;BME280_pressure;Samples;Min_cycle;Max_cycle;Signal;HPM_P1;HPM_P2
2024/01/24 00:01:57;;;;;;;15.32;9.25;;;;;;;1.06;100.00;99173.53;5048881;28;20174;-57
2024/01/24 00:04:22;;;;;;;13.02;9.57;;;;;;;0.79;100.00;99143.47;5048858;28;20226;-57
2024/01/24 00:06:49;;;;;;;15.30;9.43;;;;;;;0.87;100.00;99167.09;5048836;28;20212;-57
2024/01/24 00:09:14;;;;;;;10.15;7.68;;;;;;;0.66;100.00;99109.75;5049520;28;20186;-57
2024/01/24 00:11:40;;;;;;;12.25;8.55;;;;;;;0.68;100.00;99130.94;5052917;28;20180;-57
2024/01/24 00:14:05;;;;;;;13.80;8.82;;;;;;;0.40;100.00;99078.84;5053027;28;20729;-57
2024/01/24 00:16:30;;;;;;;13.43;9.52;;;;;;;0.97;100.00;99189.84;5052884;28;20181;-57
2024/01/24 00:18:56;;;;;;;10.23;7.95;;;;;;;0.34;100.00;99084.03;5052805;28;20178;-57
2024/01/24 00:21:21;;;;;;;11.20;9.05;;;;;;;0.82;100.00;99164.63;5052611;28;20189;-57
2024/01/24 00:23:47;;;;;;;11.82;8.35;;;;;;;0.58;100.00;99124.31;5052940;28;20274;-57
2024/01/24 00:26:12;;;;;;;14.43;9.18;;;;;;;0.80;100.00;99163.81;5083566;28;20303;-57
2024/01/24 00:28:38;;;;;;;12.30;8.55;;;;;;;0.91;100.00;99169.56;5095046;28;20232;-58
2024/01/24 00:31:03;;;;;;;13.68;9.40;;;;;;;0.97;100.00;99194.94;5095242;28;20260;-57
2024/01/24 00:33:32;;;;;;;13.35;8.40;;;;;;;0.97;100.00;99199.19;5095504;28;20188;-57
2024/01/24 00:35:57;;;;;;;14.85;9.27;;;;;;;0.35;100.00;99095.06;5095071;28;20176;-57
2024/01/24 00:38:23;;;;;;;13.65;8.60;;;;;;;0.90;100.00;99182.31;5095193;28;20263;-57
2024/01/24 00:40:48;;;;;;;13.18;8.27;;;;;;;0.94;100.00;99184.78;5095414;28;20176;-57
2024/01/24 00:43:14;;;;;;;19.00;10.73;;;;;;;0.93;100.00;99185.66;5094807;28;20597;-57
2024/01/24 00:45:39;;;;;;;14.02;9.60;;;;;;;0.99;100.00;99190.63;5032073;28;20234;-57
2024/01/24 00:48:06;;;;;;;16.20;10.27;;;;;;;0.86;100.00;99163.72;5032327;28;20286;-57
2024/01/24 00:50:32;;;;;;;17.55;10.80;;;;;;;0.54;100.00;99117.59;5032583;28;20673;-57
2024/01/24 00:53:04;;;;;;;17.45;9.20;;;;;;;0.77;100.00;99155.41;5032185;28;20182;-57
2024/01/24 00:55:30;;;;;;;7.95;5.68;;;;;;;1.01;100.00;99194.00;5032233;28;20190;-57
2024/01/24 00:57:56;;;;;;;4.38;3.05;;;;;;;0.63;100.00;99079.25;5032118;28;20277;-57
2024/01/24 01:00:22;;;;;;;4.57;4.07;;;;;;;1.38;100.00;99131.25;5032125;28;20182;-57
2024/01/24 01:02:47;;;;;;;3.75;3.05;;;;;;;1.73;100.00;99169.63;5032140;28;20182;-57
2024/01/24 01:05:13;;;;;;;4.03;3.67;;;;;;;1.96;100.00;99181.84;5032024;28;20214;-57
2024/01/24 01:07:38;;;;;;;4.78;4.28;;;;;;;1.35;100.00;99079.50;5032072;28;20201;-57
2024/01/24 01:10:05;;;;;;;4.90;4.43;;;;;;;1.38;100.00;99084.53;5011960;28;20632;-57
2024/01/24 01:12:30;;;;;;;4.32;3.85;;;;;;;1.51;100.00;99094.44;5012205;28;20266;-57
2024/01/24 01:14:55;;;;;;;4.57;4.10;;;;;;;1.94;100.00;99168.31;5012005;28;20298;-57
2024/01/24 01:17:21;;;;;;;6.15;4.60;;;;;;;1.52;100.00;99113.94;5012033;28;20206;-57
2024/01/24 01:19:46;;;;;;;5.93;4.57;;;;;;;1.79;100.00;99159.28;4953458;28;20217;-58
2024/01/24 01:22:12;;;;;;;7.30;5.55;;;;;;;1.90;100.00;99182.84;4961664;28;20194;-57
2024/01/24 01:24:37;;;;;;;9.05;5.80;;;;;;;1.82;100.00;99168.56;5011803;28;20183;-57
2024/01/24 01:27:03;;;;;;;6.88;5.68;;;;;;;1.18;100.00;99066.28;5011763;28;20198;-57
2024/01/24 01:29:28;;;;;;;7.82;5.68;;;;;;;1.80;100.00;99175.41;5011788;28;20631;-57
2024/01/24 01:31:54;;;;;;;8.57;5.95;;;;;;;1.38;100.00;99130.41;5011726;28;20574;-57
2024/01/24 01:34:19;;;;;;;7.38;5.43;;;;;;;1.66;100.00;99168.06;5011574;28;20203;-57
2024/01/24 01:36:45;;;;;;;10.48;6.85;;;;;;;1.05;100.00;99075.88;5011607;28;20253;-57
2024/01/24 01:39:11;;;;;;;10.13;6.90;;;;;;;1.71;100.00;99171.34;5011566;28;20906;-57
2024/01/24 01:41:36;;;;;;;9.38;6.65;;;;;;;1.63;100.00;99150.25;5026083;28;20269;-57
2024/01/24 01:44:03;;;;;;;14.30;6.45;;;;;;;1.51;100.00;99129.28;5031322;28;20676;-57
2024/01/24 01:46:28;;;;;;;8.18;5.50;;;;;;;1.26;100.00;99111.13;5031151;28;20255;-57
2024/01/24 01:48:56;;;;;;;4.55;3.95;;;;;;;1.45;100.00;99158.31;5031127;28;20233;-57
2024/01/24 01:51:22;;;;;;;7.57;5.18;;;;;;;1.45;100.00;99155.75;5077770;28;20263;-57
2024/01/24 01:53:48;;;;;;;7.90;5.18;;;;;;;1.45;100.00;99149.81;5093697;28;20181;-57
2024/01/24 01:56:17;;;;;;;4.93;4.20;;;;;;;1.14;100.00;99102.88;5050755;28;20182;-57
2024/01/24 01:58:44;;;;;;;4.78;4.18;;;;;;;1.51;100.00;99168.38;5050964;28;20190;-57
2024/01/24 02:01:10;;;;;;;6.45;4.38;;;;;;;1.53;100.00;99171.72;5050902;28;20189;-57
2024/01/24 02:03:37;;;;;;;9.25;4.72;;;;;;;1.24;100.00;99125.59;5050863;28;20186;-57
2024/01/24 02:06:02;;;;;;;5.18;3.83;;;;;;;1.41;100.00;99149.03;4991200;28;20215;-57
2024/01/24 02:08:28;;;;;;;6.65;4.50;;;;;;;1.45;100.00;99147.25;4991491;28;20207;-57
2024/01/24 02:10:54;;;;;;;4.97;4.40;;;;;;;1.02;100.00;99080.19;4991283;28;20192;-57
2024/01/24 02:13:20;;;;;;;8.05;5.97;;;;;;;1.03;100.00;99077.63;4991372;28;20176;-57
2024/01/24 02:15:45;;;;;;;10.02;6.57;;;;;;;1.05;100.00;99078.41;4991601;28;20184;-57
2024/01/24 02:18:11;;;;;;;6.40;5.10;;;;;;;1.65;100.00;99171.47;4991323;28;20183;-57
2024/01/24 02:20:37;;;;;;;6.85;5.30;;;;;;;1.54;100.00;99137.72;4991183;28;20259;-57
2024/01/24 02:23:02;;;;;;;5.35;4.38;;;;;;;1.53;100.00;99123.28;4991182;28;20234;-57
2024/01/24 02:25:27;;;;;;;7.18;3.83;;;;;;;1.81;100.00;99170.28;4990990;28;20216;-57
2024/01/24 02:27:53;;;;;;;3.33;2.78;;;;;;;2.00;100.00;99161.34;5021829;28;20287;-57
2024/01/24 02:30:18;;;;;;;3.65;2.67;;;;;;;1.79;100.00;99075.09;5030356;28;20174;-57
2024/01/24 02:32:44;;;;;;;4.00;2.85;;;;;;;2.06;100.00;99092.28;5029459;28;20233;-57
2024/01/24 02:35:09;;;;;;;4.13;2.78;;;;;;;2.65;100.00;99168.28;5030162;28;20178;-58
2024/01/24 02:37:36;;;;;;;4.82;3.22;;;;;;;2.39;100.00;99122.09;5075912;28;20200;-57
2024/01/24 02:40:02;;;;;;;5.88;3.97;;;;;;;2.73;100.00;99174.03;5092860;28;20211;-57
2024/01/24 02:42:28;;;;;;;5.40;4.03;;;;;;;2.17;100.00;99086.94;5092657;28;20203;-58
2024/01/24 02:44:53;;;;;;;3.67;3.38;;;;;;;2.73;100.00;99173.19;5092282;28;20221;-58
2024/01/24 02:47:21;;;;;;;4.70;4.22;;;;;;;2.53;100.00;99135.41;5092611;28;20283;-57
2024/01/24 02:49:47;;;;;;;6.47;3.50;;;;;;;2.76;100.00;99179.09;5092534;28;20233;-57
2024/01/24 02:52:13;;;;;;;4.97;4.30;;;;;;;2.46;100.00;99138.94;5092500;28;20172;-57
2024/01/24 02:54:41;;;;;;;3.08;2.70;;;;;;;2.71;100.00;99177.50;5092508;28;20168;-57
2024/01/24 02:57:06;;;;;;;3.10;2.72;;;;;;;2.31;100.00;99093.38;5092331;28;20185;-57
2024/01/24 02:59:32;;;;;;;2.92;2.60;;;;;;;3.00;100.00;99175.03;5092413;28;20182;-57
2024/01/24 03:01:57;;;;;;;3.00;2.70;;;;;;;2.80;100.00;99160.22;5092342;28;20180;-57
2024/01/24 03:04:23;;;;;;;4.13;2.40;;;;;;;2.79;100.00;99140.66;5092290;28;20215;-57
2024/01/24 03:06:48;;;;;;;2.35;2.17;;;;;;;2.89;100.00;99139.56;5092217;28;20640;-57
2024/01/24 03:09:13;;;;;;;2.75;2.53;;;;;;;2.64;100.00;99092.50;5092249;28;20172;-57
2024/01/24 03:11:39;;;;;;;3.33;2.70;;;;;;;3.26;100.00;99164.97;5092487;28;20180;-57
2024/01/24 03:14:04;;;;;;;2.30;2.10;;;;;;;2.94;100.00;99085.75;5091788;28;20206;-57
2024/01/24 03:16:29;;;;;;;4.57;3.10;;;;;;;3.09;100.00;99083.59;5092124;28;20183;-57
2024/01/24 03:18:55;;;;;;;5.15;2.95;;;;;;;3.61;100.00;99168.19;5091873;28;20191;-57
2024/01/24 03:21:20;;;;;;;2.70;2.50;;;;;;;3.21;100.00;99101.16;5092040;28;20179;-57
2024/01/24 03:23:46;;;;;;;4.47;2.70;;;;;;;3.23;100.00;99116.47;5091954;28;20199;-57
2024/01/24 03:26:13;;;;;;;3.90;2.58;;;;;;;3.45;100.00;99128.56;5091770;28;20208;-57
2024/01/24 03:28:38;;;;;;;2.72;2.63;;;;;;;3.89;100.00;99174.19;5091879;28;20176;-57
2024/01/24 03:31:04;;;;;;;3.42;2.55;;;;;;;3.97;100.00;99171.41;5091796;28;20180;-57
2024/01/24 03:33:29;;;;;;;2.42;2.13;;;;;;;4.09;100.00;99192.34;5091704;28;20219;-56
2024/01/24 03:35:55;;;;;;;4.05;2.70;;;;;;;3.49;100.00;99112.28;5091743;28;20654;-57
2024/01/24 03:38:20;;;;;;;3.00;2.70;;;;;;;3.57;100.00;99124.84;5091758;28;20188;-57
2024/01/24 03:40:46;;;;;;;2.58;2.30;;;;;;;3.58;100.00;99121.41;5091701;28;20270;-56
2024/01/24 03:43:12;;;;;;;2.70;2.50;;;;;;;3.74;100.00;99149.03;5091450;28;20325;-57
2024/01/24 03:45:38;;;;;;;2.88;2.58;;;;;;;3.53;100.00;99107.91;5090967;28;20712;-58
2024/01/24 03:48:05;;;;;;;2.35;2.10;;;;;;;4.04;100.00;99209.59;5091591;28;20177;-58
2024/01/24 03:50:31;;;;;;;2.40;2.20;;;;;;;3.90;100.00;99180.16;5091589;28;20203;-57
2024/01/24 03:52:56;;;;;;;2.95;2.58;;;;;;;4.29;98.62;99225.03;5091543;28;20199;-56
2024/01/24 03:55:22;;;;;;;3.17;2.38;;;;;;;4.33;97.66;99206.97;5091525;28;20191;-57
2024/01/24 03:57:47;;;;;;;3.15;2.33;;;;;;;4.53;95.77;99240.50;5091555;28;20629;-57
2024/01/24 04:00:14;;;;;;;2.10;2.00;;;;;;;4.11;94.71;99156.44;5091433;28;20176;-57
2024/01/24 04:02:40;;;;;;;3.55;2.60;;;;;;;3.99;95.51;99139.75;5091345;28;20177;-56
2024/01/24 04:05:06;;;;;;;4.15;2.20;;;;;;;4.08;93.82;99134.34;5091302;28;20180;-57
2024/01/24 04:07:32;;;;;;;2.78;2.58;;;;;;;4.61;93.90;99224.88;5091155;28;20689;-56
2024/01/24 04:09:59;;;;;;;2.88;2.15;;;;;;;4.56;92.19;99204.50;5091657;28;20259;-57
2024/01/24 04:12:24;;;;;;;3.47;2.75;;;;;;;4.38;92.16;99170.97;5091257;28;20673;-56
2024/01/24 04:14:49;;;;;;;2.35;2.15;;;;;;;4.38;91.86;99176.09;5091084;28;20176;-57
2024/01/24 04:17:15;;;;;;;2.92;2.45;;;;;;;4.03;91.59;99114.91;5091290;28;20185;-57
2024/01/24 04:19:40;;;;;;;4.13;2.25;;;;;;;4.37;91.37;99171.84;5091566;28;20183;-57
2024/01/24 04:22:07;;;;;;;2.63;2.42;;;;;;;4.70;92.59;99232.25;5091008;28;20639;-57
2024/01/24 04:24:33;;;;;;;3.80;2.80;;;;;;;4.13;94.21;99154.66;5091256;28;20183;-57
2024/01/24 04:26:58;;;;;;;3.20;1.92;;;;;;;4.46;96.64;99231.31;5091208;28;20287;-57
2024/01/24 04:29:24;;;;;;;2.45;2.25;;;;;;;4.41;97.48;99246.00;5091302;28;20650;-57
2024/01/24 04:31:49;;;;;;;2.75;2.35;;;;;;;3.84;98.83;99163.25;5091217;28;20169;-57
2024/01/24 04:34:17;;;;;;;3.50;2.33;;;;;;;3.88;95.53;99164.84;5091382;28;20187;-57
2024/01/24 04:36:43;;;;;;;3.42;2.42;;;;;;;4.38;94.24;99246.06;5091204;28;20223;-57
2024/01/24 04:39:10;;;;;;;3.55;2.30;;;;;;;4.28;95.38;99242.13;5091144;28;20179;-57
2024/01/24 04:41:36;;;;;;;4.00;2.92;;;;;;;3.98;95.98;99189.25;5090912;28;20173;-57
2024/01/24 04:44:01;;;;;;;2.58;2.30;;;;;;;4.02;98.68;99211.34;5091091;28;20183;-57
2024/01/24 04:46:27;;;;;;;4.00;2.08;;;;;;;4.25;96.11;99244.78;5089719;28;20216;-57
2024/01/24 04:48:52;;;;;;;2.17;2.05;;;;;;;3.50;99.79;99159.97;5091079;28;20172;-57
2024/01/24 04:51:18;;;;;;;2.30;2.15;;;;;;;3.83;100.00;99199.97;5071803;28;20329;-57
2024/01/24 04:53:44;;;;;;;2.85;2.15;;;;;;;3.68;95.89;99159.44;5091033;28;20169;-57
2024/01/24 04:56:10;;;;;;;3.15;2.78;;;;;;;4.27;95.06;99262.66;5092993;28;20176;-57
2024/01/24 04:58:35;;;;;;;2.38;2.28;;;;;;;4.34;93.06;99259.88;5094811;28;20180;-57
2024/01/24 05:01:01;;;;;;;2.20;2.00;;;;;;;3.94;91.19;99171.47;5094370;28;20169;-57
2024/01/24 05:03:26;;;;;;;2.85;2.60;;;;;;;4.42;91.69;99257.91;5094601;28;20172;-57
2024/01/24 05:05:52;;;;;;;2.50;2.30;;;;;;;4.23;93.82;99233.75;5094500;28;20207;-57
2024/01/24 05:08:18;;;;;;;3.65;2.80;;;;;;;4.37;94.13;99272.59;5051667;28;20228;-57
2024/01/24 05:10:45;;;;;;;3.33;2.75;;;;;;;4.11;95.45;99239.25;5051779;28;20194;-57
2024/01/24 05:13:11;;;;;;;3.35;2.60;;;;;;;4.38;94.31;99266.56;5051748;28;20194;-57
2024/01/24 05:15:36;;;;;;;3.63;2.10;;;;;;;4.30;94.34;99260.00;5051820;28;20194;-58
2024/01/24 05:18:02;;;;;;;3.50;2.42;;;;;;;3.96;92.04;99201.28;5051656;28;20229;-57
2024/01/24 05:20:28;;;;;;;2.25;2.15;;;;;;;3.83;92.90;99194.00;5051761;28;20705;-57
2024/01/24 05:22:53;;;;;;;2.47;2.22;;;;;;;3.99;94.86;99231.91;5051625;28;20189;-58
2024/01/24 05:25:19;;;;;;;6.07;2.60;;;;;;;4.33;91.88;99263.34;5051418;28;20275;-57
2024/01/24 05:27:44;;;;;;;4.20;2.55;;;;;;;4.45;91.37;99278.34;5051661;28;20198;-58
2024/01/24 05:30:10;;;;;;;2.50;2.30;;;;;;;4.53;90.22;99280.66;5051447;28;20182;-57
2024/01/24 05:32:36;;;;;;;3.72;2.58;;;;;;;4.03;89.19;99191.69;5051312;28;20259;-57
2024/01/24 05:35:01;;;;;;;4.03;2.50;;;;;;;4.35;90.11;99233.38;5051475;28;20234;-58
2024/01/24 05:37:27;;;;;;;3.05;2.45;;;;;;;4.55;91.05;99284.00;5051480;28;20574;-58
2024/01/24 05:39:53;;;;;;;2.90;2.60;;;;;;;3.99;92.57;99215.72;5083209;28;20185;-57
2024/01/24 05:42:18;;;;;;;2.60;2.40;;;;;;;3.89;91.77;99194.66;5093964;28;20686;-57
2024/01/24 05:44:44;;;;;;;3.08;2.47;;;;;;;4.06;91.52;99225.72;5093610;28;20595;-57
2024/01/24 05:47:09;;;;;;;3.67;2.65;;;;;;;4.18;90.23;99243.28;5050965;28;20214;-58
2024/01/24 05:49:36;;;;;;;4.47;2.42;;;;;;;4.00;89.72;99209.69;5051167;28;20189;-58
2024/01/24 05:52:03;;;;;;;3.17;2.60;;;;;;;4.37;90.67;99271.75;5051067;28;20212;-57
2024/01/24 05:54:29;;;;;;;3.72;2.72;;;;;;;4.10;86.15;99201.72;5051093;28;20236;-57
2024/01/24 05:56:55;;;;;;;3.10;2.10;;;;;;;4.68;87.07;99290.44;5050954;28;20216;-56
2024/01/24 05:59:20;;;;;;;2.60;2.40;;;;;;;4.63;88.34;99295.72;5050990;28;20190;-57
2024/01/24 06:01:47;;;;;;;3.35;2.80;;;;;;;3.96;89.74;99190.22;5050937;28;20182;-56
2024/01/24 06:04:13;;;;;;;4.88;3.15;;;;;;;4.14;92.04;99231.44;5050823;28;20190;-56
2024/01/24 06:06:39;;;;;;;3.00;2.50;;;;;;;4.10;92.53;99240.13;5050025;28;20225;-56
2024/01/24 06:09:04;;;;;;;3.30;3.00;;;;;;;4.00;93.57;99236.16;5050426;28;20224;-56
2024/01/24 06:11:30;;;;;;;5.57;3.45;;;;;;;4.42;89.33;99291.22;5050628;28;20181;-57
2024/01/24 06:13:55;;;;;;;2.63;2.42;;;;;;;4.40;89.19;99294.72;5050681;28;20185;-57
2024/01/24 06:16:21;;;;;;;3.95;2.85;;;;;;;3.80;90.56;99194.91;5050617;28;20213;-57
2024/01/24 06:18:47;;;;;;;6.45;4.25;;;;;;;4.29;90.71;99271.13;5021110;28;20191;-57
2024/01/24 06:21:13;;;;;;;47.28;21.70;;;;;;;3.68;92.48;99215.75;5030589;28;20248;-57
2024/01/24 06:23:38;;;;;;;8.88;4.90;;;;;;;4.36;89.95;99308.50;5030526;28;20229;-57
2024/01/24 06:26:04;;;;;;;4.88;3.00;;;;;;;4.53;86.94;99307.13;5030487;28;20210;-57
2024/01/24 06:28:30;;;;;;;3.28;2.63;;;;;;;4.11;85.46;99208.50;4990927;28;20584;-57
2024/01/24 06:30:55;;;;;;;3.53;2.88;;;;;;;4.10;86.67;99204.28;4991148;28;20353;-58
2024/01/24 06:33:21;;;;;;;5.03;3.83;;;;;;;4.36;88.43;99239.31;4951886;29;20749;-58
2024/01/24 06:35:47;;;;;;;8.00;4.97;;;;;;;4.12;88.06;99207.63;4952198;29;20760;-58
2024/01/24 06:38:13;;;;;;;7.75;5.15;;;;;;;4.70;88.97;99304.88;4952092;29;20237;-57
2024/01/24 06:40:39;;;;;;;5.40;3.55;;;;;;;4.49;88.03;99267.09;4948739;29;20211;-56
2024/01/24 06:43:04;;;;;;;4.80;2.72;;;;;;;4.18;87.23;99222.81;4940973;29;20198;-57
2024/01/24 06:45:30;;;;;;;4.65;3.00;;;;;;;4.26;87.14;99223.41;4932581;29;20217;-56
2024/01/24 06:47:55;;;;;;;4.13;3.00;;;;;;;4.62;85.70;99276.06;4932582;29;20244;-56
2024/01/24 06:50:21;;;;;;;5.85;3.80;;;;;;;4.89;86.46;99300.84;4961002;28;20212;-56
2024/01/24 06:52:46;;;;;;;4.22;3.00;;;;;;;4.79;85.20;99289.19;4977032;28;20199;-56
2024/01/24 06:55:13;;;;;;;3.75;2.65;;;;;;;5.07;83.68;99300.25;4970837;28;20219;-57
2024/01/24 06:57:39;;;;;;;4.47;3.47;;;;;;;5.12;83.28;99308.66;4970858;28;20239;-57
2024/01/24 07:00:06;;;;;;;4.50;3.30;;;;;;;5.27;82.06;99313.28;5005579;28;20189;-57
2024/01/24 07:02:31;;;;;;;3.70;2.80;;;;;;;5.00;81.53;99257.75;5029644;28;20186;-57
2024/01/24 07:04:57;;;;;;;2.97;2.65;;;;;;;4.82;81.02;99204.50;5076573;28;20191;-57
2024/01/24 07:07:22;;;;;;;5.78;3.03;;;;;;;5.21;80.56;99246.78;5092035;28;20289;-57
2024/01/24 07:09:48;;;;;;;6.18;3.17;;;;;;;4.98;81.14;99213.38;5092307;28;20193;-57
2024/01/24 07:12:13;;;;;;;4.57;3.17;;;;;;;5.24;79.91;99235.59;5091990;28;20185;-57
2024/01/24 07:14:39;;;;;;;3.60;3.00;;;;;;;5.37;80.68;99283.84;5091983;28;20180;-56
2024/01/24 07:17:05;;;;;;;3.58;3.17;;;;;;;5.40;79.66;99268.34;5091770;28;20263;-57
2024/01/24 07:19:31;;;;;;;4.38;3.80;;;;;;;5.97;80.01;99296.31;5091599;28;20579;-58
2024/01/24 07:21:56;;;;;;;3.85;3.38;;;;;;;6.77;75.96;99315.50;5090456;28;20172;-58
2024/01/24 07:24:22;;;;;;;8.63;3.75;;;;;;;7.30;72.20;99283.34;5047103;28;20198;-58
2024/01/24 07:26:47;;;;;;;4.95;2.95;;;;;;;7.60;69.03;99260.59;5049012;28;20263;-58
2024/01/24 07:29:12;;;;;;;4.60;3.05;;;;;;;7.41;67.64;99250.22;5048802;28;20186;-57
2024/01/24 07:31:39;;;;;;;3.92;2.80;;;;;;;7.52;68.27;99317.56;5048885;28;20248;-57
2024/01/24 07:34:05;;;;;;;6.07;3.38;;;;;;;6.91;68.62;99232.66;5032536;28;20202;-57
2024/01/24 07:36:31;;;;;;;4.03;2.80;;;;;;;6.82;69.72;99246.72;5029011;28;20186;-57
2024/01/24 07:38:56;;;;;;;2.72;2.53;;;;;;;7.25;69.82;99339.31;5028877;28;20182;-57
2024/01/24 07:41:23;;;;;;;4.50;2.33;;;;;;;7.07;68.80;99334.03;5028802;28;20178;-57
2024/01/24 07:43:49;;;;;;;2.92;2.55;;;;;;;6.91;70.61;99340.69;5028856;28;20182;-57
2024/01/24 07:46:14;;;;;;;3.45;3.10;;;;;;;6.80;70.70;99324.84;5028719;28;20210;-57
2024/01/24 07:48:40;;;;;;;5.28;2.88;;;;;;;6.76;70.44;99326.69;5028834;28;20179;-57
2024/01/24 07:51:05;;;;;;;4.32;2.97;;;;;;;6.56;70.86;99294.91;5028761;28;20630;-57
2024/01/24 07:53:31;;;;;;;3.63;3.17;;;;;;;6.65;71.07;99323.69;5028695;28;20268;-57
2024/01/24 07:55:56;;;;;;;5.35;3.20;;;;;;;6.41;71.44;99270.63;5060072;28;20582;-57
2024/01/24 07:58:22;;;;;;;3.88;2.75;;;;;;;6.54;70.90;99299.28;5071115;28;20177;-57
2024/01/24 08:00:48;;;;;;;4.43;3.15;;;;;;;6.31;71.54;99245.34;5071096;28;20180;-58
2024/01/24 08:03:13;;;;;;;4.07;3.15;;;;;;;6.50;72.15;99284.88;5070964;28;20177;-57
2024/01/24 08:05:39;;;;;;;4.57;3.28;;;;;;;6.66;71.30;99321.97;5070899;28;20655;-58
2024/01/24 08:08:04;;;;;;;5.97;2.85;;;;;;;6.44;71.59;99273.09;5070929;28;20196;-58
2024/01/24 08:10:30;;;;;;;3.25;2.95;;;;;;;6.70;70.78;99315.81;5070932;28;20189;-58
2024/01/24 08:12:56;;;;;;;4.35;3.50;;;;;;;6.56;71.22;99282.91;5070973;28;20218;-58
2024/01/24 08:15:21;;;;;;;3.78;3.40;;;;;;;6.28;71.46;99256.59;5070854;28;20563;-57
2024/01/24 08:17:47;;;;;;;3.65;2.90;;;;;;;6.77;70.58;99345.53;5070908;28;20245;-58
2024/01/24 08:20:13;;;;;;;3.92;2.80;;;;;;;6.65;71.14;99336.53;5070905;28;20664;-57
2024/01/24 08:22:39;;;;;;;4.32;2.65;;;;;;;6.65;71.68;99323.69;5070648;28;20662;-58
2024/01/24 08:25:05;;;;;;;4.03;2.70;;;;;;;6.42;70.77;99274.06;5070476;28;20177;-58
2024/01/24 08:27:30;;;;;;;4.00;3.15;;;;;;;6.50;70.82;99285.72;5070563;28;20209;-58
2024/01/24 08:29:57;;;;;;;2.92;2.63;;;;;;;6.68;70.27;99317.59;5071161;28;20546;-58
2024/01/24 08:32:22;;;;;;;3.13;2.38;;;;;;;6.83;70.51;99320.41;5076252;28;20180;-58
2024/01/24 08:34:48;;;;;;;4.82;2.95;;;;;;;6.53;71.63;99267.59;5094879;28;20176;-57
2024/01/24 08:37:13;;;;;;;2.75;2.55;;;;;;;6.69;70.49;99288.41;5094919;28;20677;-58
2024/01/24 08:39:40;;;;;;;3.20;2.90;;;;;;;6.87;70.25;99309.09;5094869;28;20744;-57
2024/01/24 08:42:06;;;;;;;2.60;2.40;;;;;;;7.29;69.16;99366.56;5094668;28;20267;-58
2024/01/24 08:44:31;;;;;;;3.40;2.63;;;;;;;7.36;70.17;99370.59;5095053;28;20309;-58
2024/01/24 08:46:57;;;;;;;2.83;2.63;;;;;;;7.19;68.70;99326.69;5051695;28;20710;-58
2024/01/24 08:49:22;;;;;;;5.00;2.58;;;;;;;7.15;68.59;99332.84;5052201;28;20224;-58
2024/01/24 08:51:48;;;;;;;3.53;2.63;;;;;;;7.15;68.57;99330.28;5051927;28;20193;-58
2024/01/24 08:54:13;;;;;;;4.43;2.90;;;;;;;7.51;68.14;99389.75;5051814;28;20189;-58
2024/01/24 08:56:39;;;;;;;3.80;2.85;;;;;;;7.49;68.62;99361.47;5031556;28;20699;-58
2024/01/24 08:59:04;;;;;;;3.43;3.00;;;;;;;7.18;67.99;99317.25;5030894;28;20412;-58
2024/01/24 09:01:30;;;;;;;3.58;3.05;;;;;;;7.53;67.96;99377.63;5031746;28;20634;-57
2024/01/24 09:03:56;;;;;;;2.97;2.75;;;;;;;7.14;68.54;99315.75;5032017;28;20637;-58
2024/01/24 09:06:22;;;;;;;3.13;2.13;;;;;;;7.34;67.62;99350.97;5031552;28;20321;-58
2024/01/24 09:08:52;;;;;;;3.70;2.50;;;;;;;7.34;67.60;99330.38;5031660;28;20193;-58
2024/01/24 09:11:21;;;;;;;2.95;2.50;;;;;;;7.17;68.13;99299.34;5031498;28;20290;-57
2024/01/24 09:13:48;;;;;;;3.22;2.90;;;;;;;7.57;67.79;99364.56;5031578;28;20214;-58
2024/01/24 09:16:14;;;;;;;4.47;2.90;;;;;;;7.38;68.08;99312.16;4972477;28;20188;-58
2024/01/24 09:18:40;;;;;;;4.38;3.22;;;;;;;7.40;68.08;99314.66;4988302;28;20195;-58
2024/01/24 09:21:06;;;;;;;4.32;3.00;;;;;;;7.37;66.85;99274.44;4992106;28;20194;-58
2024/01/24 09:23:31;;;;;;;3.92;2.85;;;;;;;7.87;67.59;99342.66;4992163;28;20266;-58
2024/01/24 09:25:57;;;;;;;6.03;2.92;;;;;;;7.87;67.18;99347.00;4991919;28;20216;-58
2024/01/24 09:28:23;;;;;;;3.45;2.80;;;;;;;7.97;66.33;99351.69;5020374;28;20272;-58
2024/01/24 09:30:49;;;;;;;3.45;3.10;;;;;;;7.77;66.53;99335.41;5031283;28;20293;-58
2024/01/24 09:33:15;;;;;;;4.75;3.03;;;;;;;7.91;67.26;99357.09;5022111;28;20658;-57
2024/01/24 09:35:40;;;;;;;3.22;2.92;;;;;;;7.53;67.33;99283.22;4972261;28;20604;-58
2024/01/24 09:38:06;;;;;;;3.78;2.70;;;;;;;8.02;66.73;99362.63;4972387;28;20193;-58
2024/01/24 09:40:32;;;;;;;5.80;3.00;;;;;;;7.54;66.31;99277.16;4972403;28;20216;-58
2024/01/24 09:43:01;;;;;;;5.03;2.90;;;;;;;7.69;66.98;99289.34;4972187;28;20203;-58
2024/01/24 09:45:27;;;;;;;5.50;2.92;;;;;;;7.70;67.12;99285.88;4972200;28;20193;-58
2024/01/24 09:47:56;;;;;;;4.70;3.20;;;;;;;8.00;66.33;99338.66;5002564;28;20191;-58
2024/01/24 09:50:23;;;;;;;2.83;2.60;;;;;;;8.04;66.06;99341.94;4952686;29;20185;-58
2024/01/24 09:52:50;;;;;;;4.90;3.20;;;;;;;7.81;67.88;99296.53;4952833;29;20252;-58
2024/01/24 09:55:17;;;;;;;4.47;2.63;;;;;;;7.70;66.53;99267.03;4952672;29;20196;-58
2024/01/24 09:57:45;;;;;;;4.57;3.13;;;;;;;8.09;67.45;99322.78;4952724;29;20197;-58
2024/01/24 10:00:11;;;;;;;5.43;3.25;;;;;;;8.11;66.69;99333.84;4952560;29;20185;-58
2024/01/24 10:02:37;;;;;;;2.75;2.47;;;;;;;8.15;66.38;99324.28;4952628;29;20283;-58
2024/01/24 10:05:07;;;;;;;3.78;3.20;;;;;;;7.76;66.90;99246.97;4952676;29;20291;-58
2024/01/24 10:07:33;;;;;;;5.50;3.53;;;;;;;7.99;67.13;99282.03;5002449;28;20226;-58
2024/01/24 10:10:15;;;;;;;5.32;4.20;;;;;;;7.93;66.49;99269.44;5010777;28;20719;-58
2024/01/24 10:12:43;;;;;;;5.22;4.75;;;;;;;8.15;67.50;99301.91;5010776;28;20278;-58
2024/01/24 10:15:13;;;;;;;5.10;3.38;;;;;;;7.89;66.98;99261.00;4971411;28;20199;-57
2024/01/24 10:17:42;;;;;;;5.43;3.60;;;;;;;8.13;67.69;99306.28;4971542;28;20224;-57
2024/01/24 10:20:11;;;;;;;3.63;2.80;;;;;;;8.00;66.61;99273.41;4971492;28;20682;-57
2024/01/24 10:22:43;;;;;;;3.60;3.30;;;;;;;8.02;67.00;99275.00;4971629;28;20180;-57
2024/01/24 10:25:10;;;;;;;3.08;2.80;;;;;;;8.08;67.36;99290.19;4970757;28;20188;-57
2024/01/24 10:27:38;;;;;;;4.00;2.92;;;;;;;8.01;67.58;99273.34;4995840;28;20229;-57
2024/01/24 10:30:14;;;;;;;5.30;3.60;;;;;;;7.69;68.53;99206.94;5030072;28;20692;-57
2024/01/24 10:32:48;;;;;;;4.63;2.70;;;;;;;7.69;67.78;99188.09;5034230;28;20205;-57
2024/01/24 10:35:14;;;;;;;5.20;3.63;;;;;;;7.98;68.45;99234.00;5050054;28;20208;-57
2024/01/24 10:37:42;;;;;;;5.75;4.10;;;;;;;8.23;68.59;99263.78;5049886;28;20185;-57
2024/01/24 10:40:14;;;;;;;4.07;3.67;;;;;;;7.81;68.15;99182.38;5049892;28;20182;-58
2024/01/24 10:42:42;;;;;;;4.43;3.85;;;;;;;8.36;68.52;99269.19;5049625;28;20186;-57
2024/01/24 10:45:08;;;;;;;4.90;4.20;;;;;;;8.15;67.87;99229.72;5051608;28;20227;-57
2024/01/24 10:47:34;;;;;;;4.88;3.78;;;;;;;8.34;67.31;99256.34;5071991;28;20225;-57
2024/01/24 10:50:04;;;;;;;7.72;4.68;;;;;;;8.21;67.80;99244.13;5072115;28;20181;-57
2024/01/24 10:52:32;;;;;;;6.57;4.03;;;;;;;8.24;67.43;99247.41;5072049;28;20173;-57
2024/01/24 10:55:05;;;;;;;6.97;3.00;;;;;;;8.24;67.06;99237.09;5071583;28;20202;-58
2024/01/24 10:57:33;;;;;;;4.20;3.58;;;;;;;8.07;67.72;99200.91;5072133;28;20219;-58
2024/01/24 11:00:01;;;;;;;4.03;3.67;;;;;;;8.03;68.27;99168.44;5071991;28;20184;-57
2024/01/24 11:02:27;;;;;;;9.63;4.85;;;;;;;8.56;67.38;99231.25;5071814;28;20192;-58
2024/01/24 11:04:53;;;;;;;4.75;3.72;;;;;;;8.20;65.99;99160.78;5091649;28;20259;-58
2024/01/24 11:07:29;;;;;;;4.72;4.25;;;;;;;8.82;66.53;99245.47;5092095;28;20216;-57
2024/01/24 11:10:21;;;;;;;6.43;4.63;;;;;;;8.85;66.26;99230.69;5091813;28;20169;-57
2024/01/24 11:12:48;;;;;;;7.07;4.18;;;;;;;8.41;65.33;99143.47;5092016;28;20263;-57
2024/01/24 11:15:13;;;;;;;4.38;3.67;;;;;;;8.98;64.54;99239.50;5091956;28;20253;-57
2024/01/24 11:17:41;;;;;;;5.15;4.35;;;;;;;8.56;64.78;99163.38;5091973;28;20208;-57
2024/01/24 11:20:07;;;;;;;4.60;3.95;;;;;;;8.63;64.77;99181.03;5029079;28;20183;-57
2024/01/24 11:22:34;;;;;;;6.53;3.83;;;;;;;8.90;64.21;99202.91;5029176;28;20676;-57
2024/01/24 11:25:00;;;;;;;6.15;4.15;;;;;;;8.68;63.95;99171.31;5029108;28;20186;-57
2024/01/24 11:27:33;;;;;;;4.63;4.20;;;;;;;8.91;64.66;99190.84;5029014;28;20760;-57
2024/01/24 11:30:17;;;;;;;5.55;3.97;;;;;;;8.79;63.93;99157.91;5028982;28;20775;-57
2024/01/24 11:32:46;;;;;;;4.18;3.72;;;;;;;9.21;64.17;99207.41;5028947;28;20284;-57
2024/01/24 11:35:26;;;;;;;5.30;3.50;;;;;;;9.30;63.20;99210.34;5028945;28;20338;-57